CGSPM CYTZ-CSE4
Flight info
| Callsign | CGSPM |
|---|---|
| Flight time | 1h 25m |
| Altitude | 8000 |
| Route | BOMET7 MIGLO |
| Aircraft | SR22/L-SDGRY/S |
Departure
| Time | 2026-05-09 01:30 |
|---|---|
| Airport | Billy Bishop Toronto City Airport (CYTZ) |
Arrival
| Time | 2026-05-09 02:55 |
|---|---|
| Airport | Lachute Airport (CSE4) |
| Time | Latitude | Longitude | Altitude | Speed | Heading |
|---|---|---|---|---|---|
| 2026-05-09 01:12 | 43.63257 | -79.39483 | 255 ft | 0 kts | 259° |
| 2026-05-09 01:21 | 43.63257 | -79.39484 | 255 ft | 1 kts | 254° |
| 2026-05-09 01:21 | 43.63244 | -79.39481 | 245 ft | 6 kts | 121° |
| 2026-05-09 01:21 | 43.63237 | -79.39465 | 255 ft | 0 kts | 118° |
| 2026-05-09 01:24 | 43.63236 | -79.39463 | 255 ft | 1 kts | 117° |
| 2026-05-09 01:25 | 43.63237 | -79.39403 | 255 ft | 11 kts | 117° |
| 2026-05-09 01:25 | 43.63171 | -79.39338 | 255 ft | 13 kts | 159° |
| 2026-05-09 01:25 | 43.63146 | -79.39261 | 255 ft | 9 kts | 146° |
| 2026-05-09 01:25 | 43.63127 | -79.39261 | 255 ft | 0 kts | 221° |
| 2026-05-09 01:27 | 43.63127 | -79.39262 | 255 ft | 0 kts | 220° |
| 2026-05-09 01:28 | 43.63085 | -79.39267 | 259 ft | 8 kts | 137° |
| 2026-05-09 01:28 | 43.63100 | -79.39144 | 259 ft | 19 kts | 72° |
| 2026-05-09 01:29 | 43.63126 | -79.39028 | 256 ft | 0 kts | 67° |
| 2026-05-09 01:29 | 43.63127 | -79.38970 | 255 ft | 14 kts | 123° |
| 2026-05-09 01:29 | 43.63066 | -79.39018 | 256 ft | 17 kts | 253° |
| 2026-05-09 01:30 | 43.62963 | -79.39448 | 261 ft | 80 kts | 249° |
| 2026-05-09 01:30 | 43.62757 | -79.40284 | 483 ft | 94 kts | 247° |
| 2026-05-09 01:30 | 43.62532 | -79.41110 | 824 ft | 90 kts | 240° |
| 2026-05-09 01:30 | 43.62041 | -79.41547 | 1129 ft | 92 kts | 177° |
| 2026-05-09 01:31 | 43.61620 | -79.40881 | 1370 ft | 109 kts | 100° |
| 2026-05-09 01:31 | 43.61901 | -79.39844 | 1715 ft | 121 kts | 56° |
| 2026-05-09 01:31 | 43.62446 | -79.38934 | 2074 ft | 126 kts | 50° |
| 2026-05-09 01:31 | 43.63041 | -79.38055 | 2390 ft | 124 kts | 51° |
| 2026-05-09 01:32 | 43.63539 | -79.37045 | 2555 ft | 130 kts | 58° |
| 2026-05-09 01:32 | 43.64037 | -79.35979 | 2728 ft | 136 kts | 60° |
| 2026-05-09 01:32 | 43.64508 | -79.34796 | 2797 ft | 146 kts | 64° |
| 2026-05-09 01:32 | 43.64966 | -79.33503 | 2831 ft | 152 kts | 65° |
| 2026-05-09 01:33 | 43.65419 | -79.32159 | 2877 ft | 156 kts | 66° |
| 2026-05-09 01:33 | 43.65865 | -79.30780 | 2919 ft | 159 kts | 67° |
| 2026-05-09 01:33 | 43.66314 | -79.29365 | 2925 ft | 162 kts | 67° |
| 2026-05-09 01:33 | 43.66817 | -79.27959 | 2926 ft | 164 kts | 61° |
| 2026-05-09 01:34 | 43.67379 | -79.26576 | 2929 ft | 166 kts | 61° |
| 2026-05-09 01:34 | 43.67947 | -79.25185 | 2930 ft | 166 kts | 60° |
| 2026-05-09 01:34 | 43.68555 | -79.23847 | 2932 ft | 166 kts | 56° |
| 2026-05-09 01:34 | 43.69193 | -79.22504 | 2931 ft | 167 kts | 56° |
| 2026-05-09 01:35 | 43.69825 | -79.21180 | 3013 ft | 162 kts | 56° |
| 2026-05-09 01:35 | 43.70443 | -79.19873 | 3144 ft | 161 kts | 56° |
| 2026-05-09 01:35 | 43.71052 | -79.18570 | 3267 ft | 161 kts | 56° |
| 2026-05-09 01:35 | 43.71679 | -79.17297 | 3388 ft | 160 kts | 45° |
| 2026-05-09 01:36 | 43.72622 | -79.16518 | 3516 ft | 159 kts | 24° |
| 2026-05-09 01:36 | 43.73496 | -79.15575 | 3632 ft | 162 kts | 50° |
| 2026-05-09 01:36 | 43.74098 | -79.14273 | 3758 ft | 163 kts | 58° |
| 2026-05-09 01:36 | 43.74676 | -79.12924 | 3891 ft | 163 kts | 58° |
| 2026-05-09 01:37 | 43.75256 | -79.11573 | 4026 ft | 164 kts | 57° |
| 2026-05-09 01:37 | 43.75842 | -79.10218 | 4156 ft | 164 kts | 57° |
| 2026-05-09 01:37 | 43.76430 | -79.08856 | 4286 ft | 165 kts | 57° |
| 2026-05-09 01:37 | 43.77020 | -79.07489 | 4417 ft | 166 kts | 57° |
| 2026-05-09 01:38 | 43.77617 | -79.06105 | 4509 ft | 169 kts | 57° |
| 2026-05-09 01:38 | 43.78229 | -79.04682 | 4515 ft | 175 kts | 57° |
| 2026-05-09 01:38 | 43.78853 | -79.03230 | 4522 ft | 175 kts | 57° |
| 2026-05-09 01:38 | 43.79475 | -79.01782 | 4521 ft | 176 kts | 57° |
| 2026-05-09 01:39 | 43.80107 | -79.00317 | 4517 ft | 178 kts | 57° |
| 2026-05-09 01:39 | 43.80736 | -78.98857 | 4519 ft | 178 kts | 57° |
| 2026-05-09 01:39 | 43.81370 | -78.97382 | 4521 ft | 179 kts | 57° |
| 2026-05-09 01:39 | 43.82005 | -78.95904 | 4518 ft | 178 kts | 57° |
| 2026-05-09 01:40 | 43.82638 | -78.94432 | 4518 ft | 178 kts | 57° |
| 2026-05-09 01:40 | 43.83271 | -78.92957 | 4517 ft | 178 kts | 57° |
| 2026-05-09 01:40 | 43.83896 | -78.91507 | 4628 ft | 173 kts | 57° |
| 2026-05-09 01:40 | 43.84508 | -78.90085 | 4743 ft | 170 kts | 57° |
| 2026-05-09 01:41 | 43.85111 | -78.88681 | 4876 ft | 169 kts | 56° |
| 2026-05-09 01:41 | 43.85704 | -78.87299 | 4996 ft | 169 kts | 56° |
| 2026-05-09 01:41 | 43.86307 | -78.85893 | 5122 ft | 170 kts | 56° |
| 2026-05-09 01:41 | 43.86909 | -78.84485 | 5250 ft | 170 kts | 56° |
| 2026-05-09 01:42 | 43.87515 | -78.83072 | 5388 ft | 171 kts | 56° |
| 2026-05-09 01:42 | 43.88120 | -78.81656 | 5515 ft | 171 kts | 56° |
| 2026-05-09 01:42 | 43.88732 | -78.80227 | 5646 ft | 173 kts | 56° |
| 2026-05-09 01:42 | 43.89346 | -78.78785 | 5779 ft | 173 kts | 56° |
| 2026-05-09 01:43 | 43.89752 | -78.77835 | 5866 ft | 174 kts | 56° |
| 2026-05-09 01:43 | 43.90573 | -78.75912 | 6041 ft | 174 kts | 55° |
| 2026-05-09 01:43 | 43.90983 | -78.74953 | 6134 ft | 174 kts | 55° |
| 2026-05-09 01:43 | 43.91600 | -78.73503 | 6268 ft | 175 kts | 55° |
| 2026-05-09 01:44 | 43.92223 | -78.72046 | 6392 ft | 175 kts | 55° |
| 2026-05-09 01:44 | 43.92846 | -78.70583 | 6517 ft | 176 kts | 55° |
| 2026-05-09 01:44 | 43.93471 | -78.69116 | 6635 ft | 177 kts | 55° |
| 2026-05-09 01:44 | 43.94099 | -78.67647 | 6767 ft | 177 kts | 55° |
| 2026-05-09 01:45 | 43.94718 | -78.66190 | 6892 ft | 178 kts | 55° |
| 2026-05-09 01:45 | 43.95347 | -78.64710 | 7017 ft | 178 kts | 54° |
| 2026-05-09 01:45 | 43.95977 | -78.63226 | 7143 ft | 178 kts | 54° |
| 2026-05-09 01:45 | 43.96610 | -78.61739 | 7269 ft | 179 kts | 54° |
| 2026-05-09 01:46 | 43.97243 | -78.60247 | 7393 ft | 179 kts | 54° |
| 2026-05-09 01:46 | 43.97875 | -78.58758 | 7521 ft | 180 kts | 54° |
| 2026-05-09 01:46 | 43.98512 | -78.57255 | 7602 ft | 183 kts | 54° |
| 2026-05-09 01:46 | 43.99173 | -78.55700 | 7605 ft | 189 kts | 54° |
| 2026-05-09 01:47 | 43.99833 | -78.54136 | 7619 ft | 192 kts | 54° |
| 2026-05-09 01:47 | 44.00512 | -78.52532 | 7615 ft | 192 kts | 54° |
| 2026-05-09 01:47 | 44.01194 | -78.50926 | 7618 ft | 194 kts | 54° |
| 2026-05-09 01:47 | 44.01878 | -78.49300 | 7618 ft | 195 kts | 54° |
| 2026-05-09 01:48 | 44.02567 | -78.47670 | 7618 ft | 196 kts | 54° |
| 2026-05-09 01:48 | 44.03257 | -78.46038 | 7621 ft | 196 kts | 54° |
| 2026-05-09 01:48 | 44.03951 | -78.44394 | 7617 ft | 197 kts | 54° |
| 2026-05-09 01:48 | 44.04637 | -78.42770 | 7612 ft | 196 kts | 54° |
| 2026-05-09 01:49 | 44.05329 | -78.41129 | 7614 ft | 196 kts | 54° |
| 2026-05-09 01:49 | 44.06025 | -78.39482 | 7615 ft | 197 kts | 54° |
| 2026-05-09 01:49 | 44.06718 | -78.37836 | 7612 ft | 197 kts | 54° |
| 2026-05-09 01:49 | 44.07407 | -78.36200 | 7609 ft | 198 kts | 54° |
| 2026-05-09 01:50 | 44.08102 | -78.34548 | 7611 ft | 198 kts | 54° |
| 2026-05-09 01:50 | 44.08796 | -78.32896 | 7611 ft | 198 kts | 54° |
| 2026-05-09 01:50 | 44.09490 | -78.31248 | 7613 ft | 197 kts | 54° |
| 2026-05-09 01:50 | 44.10185 | -78.29594 | 7614 ft | 198 kts | 54° |
| 2026-05-09 01:51 | 44.10879 | -78.27942 | 7608 ft | 198 kts | 54° |
| 2026-05-09 01:51 | 44.11565 | -78.26306 | 7613 ft | 198 kts | 54° |
| 2026-05-09 01:51 | 44.12259 | -78.24652 | 7607 ft | 198 kts | 54° |
| 2026-05-09 01:51 | 44.12956 | -78.22990 | 7611 ft | 198 kts | 54° |
| 2026-05-09 01:52 | 44.13650 | -78.21333 | 7611 ft | 198 kts | 54° |
| 2026-05-09 01:52 | 44.14336 | -78.19688 | 7605 ft | 194 kts | 55° |
| 2026-05-09 01:52 | 44.15005 | -78.18082 | 7584 ft | 190 kts | 54° |
| 2026-05-09 01:52 | 44.15666 | -78.16505 | 7574 ft | 187 kts | 54° |
| 2026-05-09 01:53 | 44.16311 | -78.14969 | 7573 ft | 184 kts | 54° |
| 2026-05-09 01:53 | 44.16955 | -78.13429 | 7567 ft | 183 kts | 54° |
| 2026-05-09 01:53 | 44.17595 | -78.11899 | 7566 ft | 182 kts | 54° |
| 2026-05-09 01:53 | 44.18232 | -78.10370 | 7567 ft | 182 kts | 54° |
| 2026-05-09 01:54 | 44.18867 | -78.08849 | 7570 ft | 182 kts | 54° |
| 2026-05-09 01:54 | 44.19498 | -78.07340 | 7571 ft | 184 kts | 54° |
| 2026-05-09 01:54 | 44.20148 | -78.05785 | 7572 ft | 186 kts | 54° |
| 2026-05-09 01:54 | 44.20800 | -78.04218 | 7575 ft | 187 kts | 54° |
| 2026-05-09 01:55 | 44.21456 | -78.02641 | 7578 ft | 188 kts | 54° |
| 2026-05-09 01:55 | 44.22103 | -78.01084 | 7580 ft | 189 kts | 54° |
| 2026-05-09 01:55 | 44.22764 | -77.99490 | 7582 ft | 189 kts | 54° |
| 2026-05-09 01:55 | 44.23426 | -77.97900 | 7583 ft | 190 kts | 54° |
| 2026-05-09 01:56 | 44.24087 | -77.96306 | 7582 ft | 190 kts | 54° |
| 2026-05-09 01:56 | 44.24750 | -77.94710 | 7586 ft | 189 kts | 55° |
| 2026-05-09 01:56 | 44.25408 | -77.93124 | 7587 ft | 189 kts | 55° |
| 2026-05-09 01:56 | 44.26065 | -77.91538 | 7589 ft | 189 kts | 55° |
| 2026-05-09 01:57 | 44.26716 | -77.89969 | 7589 ft | 189 kts | 55° |
| 2026-05-09 01:57 | 44.27373 | -77.88379 | 7589 ft | 189 kts | 55° |
| 2026-05-09 01:57 | 44.28030 | -77.86795 | 7590 ft | 188 kts | 55° |
| 2026-05-09 01:57 | 44.28686 | -77.85209 | 7591 ft | 189 kts | 55° |
| 2026-05-09 01:58 | 44.29343 | -77.83621 | 7589 ft | 189 kts | 55° |
| 2026-05-09 01:58 | 44.30000 | -77.82030 | 7589 ft | 189 kts | 55° |
| 2026-05-09 01:58 | 44.30656 | -77.80443 | 7590 ft | 189 kts | 55° |
| 2026-05-09 01:58 | 44.31313 | -77.78852 | 7590 ft | 189 kts | 55° |
| 2026-05-09 01:59 | 44.31966 | -77.77266 | 7589 ft | 188 kts | 55° |
| 2026-05-09 01:59 | 44.32614 | -77.75696 | 7590 ft | 189 kts | 55° |
| 2026-05-09 01:59 | 44.33271 | -77.74101 | 7592 ft | 189 kts | 55° |
| 2026-05-09 01:59 | 44.33931 | -77.72502 | 7591 ft | 190 kts | 54° |
| 2026-05-09 02:00 | 44.34590 | -77.70900 | 7589 ft | 190 kts | 55° |
| 2026-05-09 02:00 | 44.35251 | -77.69292 | 7589 ft | 190 kts | 54° |
| 2026-05-09 02:00 | 44.35911 | -77.67687 | 7589 ft | 191 kts | 54° |
| 2026-05-09 02:00 | 44.36571 | -77.66081 | 7589 ft | 191 kts | 54° |
| 2026-05-09 02:01 | 44.37231 | -77.64476 | 7593 ft | 191 kts | 55° |
| 2026-05-09 02:01 | 44.37891 | -77.62864 | 7592 ft | 190 kts | 54° |
| 2026-05-09 02:01 | 44.38550 | -77.61259 | 7594 ft | 190 kts | 55° |
| 2026-05-09 02:01 | 44.39200 | -77.59673 | 7592 ft | 190 kts | 55° |
| 2026-05-09 02:02 | 44.39858 | -77.58066 | 7589 ft | 190 kts | 55° |
| 2026-05-09 02:02 | 44.40515 | -77.56466 | 7590 ft | 190 kts | 55° |
| 2026-05-09 02:02 | 44.41171 | -77.54865 | 7586 ft | 189 kts | 54° |
| 2026-05-09 02:02 | 44.41826 | -77.53262 | 7586 ft | 189 kts | 54° |
| 2026-05-09 02:03 | 44.42479 | -77.51663 | 7587 ft | 189 kts | 54° |
| 2026-05-09 02:03 | 44.43133 | -77.50062 | 7587 ft | 189 kts | 54° |
| 2026-05-09 02:03 | 44.43778 | -77.48484 | 7586 ft | 189 kts | 54° |
| 2026-05-09 02:03 | 44.44431 | -77.46883 | 7586 ft | 189 kts | 54° |
| 2026-05-09 02:04 | 44.45083 | -77.45284 | 7590 ft | 189 kts | 54° |
| 2026-05-09 02:04 | 44.45735 | -77.43684 | 7590 ft | 189 kts | 54° |
| 2026-05-09 02:04 | 44.46386 | -77.42088 | 7589 ft | 189 kts | 54° |
| 2026-05-09 02:04 | 44.47038 | -77.40491 | 7588 ft | 189 kts | 54° |
| 2026-05-09 02:05 | 44.47679 | -77.38917 | 7590 ft | 189 kts | 54° |
| 2026-05-09 02:05 | 44.48329 | -77.37320 | 7587 ft | 188 kts | 54° |
| 2026-05-09 02:05 | 44.48978 | -77.35723 | 7602 ft | 188 kts | 53° |
| 2026-05-09 02:05 | 44.49630 | -77.34120 | 7593 ft | 190 kts | 53° |
| 2026-05-09 02:06 | 44.50281 | -77.32511 | 7593 ft | 190 kts | 54° |
| 2026-05-09 02:06 | 44.50934 | -77.30899 | 7592 ft | 190 kts | 53° |
| 2026-05-09 02:06 | 44.51589 | -77.29284 | 7593 ft | 190 kts | 53° |
| 2026-05-09 02:07 | 44.52887 | -77.26088 | 7592 ft | 190 kts | 54° |
| 2026-05-09 02:07 | 44.53542 | -77.24468 | 7592 ft | 190 kts | 54° |
| 2026-05-09 02:07 | 44.54194 | -77.22855 | 7592 ft | 190 kts | 54° |
| 2026-05-09 02:07 | 44.54848 | -77.21241 | 7593 ft | 191 kts | 54° |
| 2026-05-09 02:08 | 44.55500 | -77.19624 | 7591 ft | 191 kts | 54° |
| 2026-05-09 02:08 | 44.56155 | -77.18004 | 7591 ft | 190 kts | 54° |
| 2026-05-09 02:08 | 44.56801 | -77.16405 | 7591 ft | 190 kts | 54° |
| 2026-05-09 02:08 | 44.57455 | -77.14785 | 7591 ft | 190 kts | 54° |
| 2026-05-09 02:09 | 44.58108 | -77.13164 | 7589 ft | 190 kts | 54° |
| 2026-05-09 02:09 | 44.58761 | -77.11546 | 7589 ft | 191 kts | 54° |
| 2026-05-09 02:09 | 44.59415 | -77.09923 | 7590 ft | 191 kts | 54° |
| 2026-05-09 02:09 | 44.60069 | -77.08297 | 7582 ft | 191 kts | 53° |
| 2026-05-09 02:10 | 44.60717 | -77.06682 | 7587 ft | 189 kts | 53° |
| 2026-05-09 02:10 | 44.61356 | -77.05098 | 7587 ft | 189 kts | 53° |
| 2026-05-09 02:10 | 44.62001 | -77.03495 | 7587 ft | 189 kts | 53° |
| 2026-05-09 02:10 | 44.62646 | -77.01886 | 7586 ft | 189 kts | 53° |
| 2026-05-09 02:11 | 44.63290 | -77.00283 | 7582 ft | 188 kts | 53° |
| 2026-05-09 02:11 | 44.63934 | -76.98681 | 7595 ft | 188 kts | 53° |
| 2026-05-09 02:11 | 44.64579 | -76.97071 | 7589 ft | 189 kts | 53° |
| 2026-05-09 02:11 | 44.65225 | -76.95461 | 7590 ft | 189 kts | 53° |
| 2026-05-09 02:12 | 44.65871 | -76.93844 | 7588 ft | 189 kts | 53° |
| 2026-05-09 02:12 | 44.66517 | -76.92232 | 7589 ft | 190 kts | 53° |
| 2026-05-09 02:12 | 44.67164 | -76.90617 | 7589 ft | 190 kts | 53° |
| 2026-05-09 02:12 | 44.67803 | -76.89016 | 7595 ft | 190 kts | 53° |
| 2026-05-09 02:13 | 44.68452 | -76.87394 | 7594 ft | 190 kts | 53° |
| 2026-05-09 02:13 | 44.69097 | -76.85777 | 7593 ft | 189 kts | 53° |
| 2026-05-09 02:13 | 44.69743 | -76.84159 | 7593 ft | 189 kts | 53° |
| 2026-05-09 02:13 | 44.70391 | -76.82535 | 7590 ft | 190 kts | 53° |
| 2026-05-09 02:14 | 44.71031 | -76.80931 | 7592 ft | 190 kts | 53° |
| 2026-05-09 02:14 | 44.71677 | -76.79308 | 7592 ft | 190 kts | 53° |
| 2026-05-09 02:14 | 44.72324 | -76.77686 | 7592 ft | 190 kts | 53° |
| 2026-05-09 02:14 | 44.72963 | -76.76081 | 7592 ft | 190 kts | 53° |
| 2026-05-09 02:15 | 44.73610 | -76.74452 | 7592 ft | 190 kts | 53° |
| 2026-05-09 02:15 | 44.74254 | -76.72831 | 7592 ft | 190 kts | 53° |
| 2026-05-09 02:15 | 44.74892 | -76.71226 | 7592 ft | 190 kts | 53° |
| 2026-05-09 02:15 | 44.75536 | -76.69606 | 7591 ft | 190 kts | 53° |
| 2026-05-09 02:16 | 44.76181 | -76.67982 | 7587 ft | 190 kts | 53° |
| 2026-05-09 02:16 | 44.76823 | -76.66362 | 7587 ft | 189 kts | 53° |
| 2026-05-09 02:16 | 44.77467 | -76.64736 | 7588 ft | 189 kts | 53° |
| 2026-05-09 02:16 | 44.78108 | -76.63121 | 7588 ft | 190 kts | 53° |
| 2026-05-09 02:17 | 44.78753 | -76.61494 | 7587 ft | 190 kts | 53° |
| 2026-05-09 02:17 | 44.79397 | -76.59865 | 7587 ft | 191 kts | 53° |
| 2026-05-09 02:17 | 44.80042 | -76.58229 | 7588 ft | 190 kts | 53° |
| 2026-05-09 02:17 | 44.80681 | -76.56615 | 7587 ft | 190 kts | 53° |
| 2026-05-09 02:18 | 44.81324 | -76.54987 | 7586 ft | 190 kts | 53° |
| 2026-05-09 02:18 | 44.81969 | -76.53355 | 7581 ft | 190 kts | 53° |
| 2026-05-09 02:18 | 44.82612 | -76.51725 | 7582 ft | 190 kts | 53° |
| 2026-05-09 02:18 | 44.83255 | -76.50093 | 7582 ft | 190 kts | 53° |
| 2026-05-09 02:19 | 44.83896 | -76.48466 | 7588 ft | 190 kts | 53° |
| 2026-05-09 02:19 | 44.84540 | -76.46835 | 7586 ft | 190 kts | 53° |
| 2026-05-09 02:19 | 44.85179 | -76.45208 | 7587 ft | 190 kts | 53° |
| 2026-05-09 02:19 | 44.85810 | -76.43605 | 7586 ft | 189 kts | 53° |
| 2026-05-09 02:20 | 44.86449 | -76.41981 | 7582 ft | 189 kts | 53° |
| 2026-05-09 02:20 | 44.87087 | -76.40358 | 7581 ft | 189 kts | 53° |
| 2026-05-09 02:20 | 44.87727 | -76.38730 | 7581 ft | 189 kts | 53° |
| 2026-05-09 02:20 | 44.88366 | -76.37101 | 7575 ft | 189 kts | 53° |
| 2026-05-09 02:21 | 44.88993 | -76.35501 | 7574 ft | 189 kts | 53° |
| 2026-05-09 02:21 | 44.89628 | -76.33882 | 7575 ft | 189 kts | 53° |
| 2026-05-09 02:21 | 44.90265 | -76.32259 | 7574 ft | 189 kts | 53° |
| 2026-05-09 02:21 | 44.90901 | -76.30633 | 7574 ft | 189 kts | 53° |
| 2026-05-09 02:22 | 44.91536 | -76.29010 | 7574 ft | 189 kts | 53° |
| 2026-05-09 02:22 | 44.92166 | -76.27399 | 7574 ft | 189 kts | 53° |
| 2026-05-09 02:22 | 44.92802 | -76.25776 | 7573 ft | 189 kts | 53° |
| 2026-05-09 02:22 | 44.93437 | -76.24146 | 7573 ft | 189 kts | 53° |
| 2026-05-09 02:23 | 44.94072 | -76.22520 | 7580 ft | 189 kts | 54° |
| 2026-05-09 02:23 | 44.94707 | -76.20893 | 7580 ft | 189 kts | 54° |
| 2026-05-09 02:23 | 44.95345 | -76.19259 | 7580 ft | 189 kts | 54° |
| 2026-05-09 02:23 | 44.95981 | -76.17626 | 7580 ft | 189 kts | 54° |
| 2026-05-09 02:24 | 44.96607 | -76.16017 | 7577 ft | 189 kts | 54° |
| 2026-05-09 02:24 | 44.97243 | -76.14387 | 7577 ft | 190 kts | 54° |
| 2026-05-09 02:24 | 44.97878 | -76.12752 | 7576 ft | 189 kts | 54° |
| 2026-05-09 02:24 | 44.98513 | -76.11122 | 7576 ft | 189 kts | 54° |
| 2026-05-09 02:25 | 44.99147 | -76.09489 | 7574 ft | 189 kts | 54° |
| 2026-05-09 02:25 | 44.99782 | -76.07856 | 7573 ft | 189 kts | 54° |
| 2026-05-09 02:25 | 45.00414 | -76.06227 | 7571 ft | 189 kts | 54° |
| 2026-05-09 02:25 | 45.01051 | -76.04586 | 7570 ft | 190 kts | 54° |
| 2026-05-09 02:26 | 45.01676 | -76.02972 | 7570 ft | 190 kts | 54° |
| 2026-05-09 02:26 | 45.02311 | -76.01334 | 7570 ft | 190 kts | 54° |
| 2026-05-09 02:26 | 45.02947 | -75.99692 | 7570 ft | 190 kts | 54° |
| 2026-05-09 02:26 | 45.03582 | -75.98053 | 7570 ft | 190 kts | 54° |
| 2026-05-09 02:27 | 45.04214 | -75.96415 | 7569 ft | 190 kts | 54° |
| 2026-05-09 02:27 | 45.04848 | -75.94776 | 7568 ft | 189 kts | 54° |
| 2026-05-09 02:27 | 45.05472 | -75.93161 | 7568 ft | 189 kts | 54° |
| 2026-05-09 02:27 | 45.06102 | -75.91530 | 7567 ft | 189 kts | 54° |
| 2026-05-09 02:28 | 45.06734 | -75.89895 | 7569 ft | 189 kts | 54° |
| 2026-05-09 02:28 | 45.07365 | -75.88256 | 7569 ft | 189 kts | 54° |
| 2026-05-09 02:28 | 45.07997 | -75.86617 | 7570 ft | 189 kts | 54° |
| 2026-05-09 02:28 | 45.08628 | -75.84977 | 7570 ft | 189 kts | 54° |
| 2026-05-09 02:29 | 45.09261 | -75.83336 | 7572 ft | 190 kts | 56° |
| 2026-05-09 02:29 | 45.09891 | -75.81698 | 7573 ft | 190 kts | 55° |
| 2026-05-09 02:29 | 45.10522 | -75.80056 | 7572 ft | 190 kts | 55° |
| 2026-05-09 02:29 | 45.11147 | -75.78429 | 7573 ft | 190 kts | 55° |
| 2026-05-09 02:30 | 45.11777 | -75.76790 | 7573 ft | 189 kts | 56° |
| 2026-05-09 02:30 | 45.12408 | -75.75146 | 7571 ft | 190 kts | 55° |
| 2026-05-09 02:30 | 45.12825 | -75.74058 | 7571 ft | 190 kts | 55° |
| 2026-05-09 02:30 | 45.13456 | -75.72414 | 7571 ft | 189 kts | 55° |
| 2026-05-09 02:31 | 45.14289 | -75.70237 | 7572 ft | 189 kts | 56° |
| 2026-05-09 02:31 | 45.14918 | -75.68597 | 7572 ft | 189 kts | 56° |
| 2026-05-09 02:31 | 45.15333 | -75.67512 | 7572 ft | 189 kts | 55° |
| 2026-05-09 02:31 | 45.15961 | -75.65874 | 7572 ft | 188 kts | 56° |
| 2026-05-09 02:32 | 45.16585 | -75.64240 | 7570 ft | 188 kts | 56° |
| 2026-05-09 02:32 | 45.17207 | -75.62609 | 7564 ft | 188 kts | 56° |
| 2026-05-09 02:32 | 45.17832 | -75.60975 | 7563 ft | 189 kts | 56° |
| 2026-05-09 02:32 | 45.18458 | -75.59334 | 7563 ft | 189 kts | 56° |
| 2026-05-09 02:33 | 45.19085 | -75.57694 | 7566 ft | 190 kts | 56° |
| 2026-05-09 02:33 | 45.19711 | -75.56048 | 7566 ft | 190 kts | 56° |
| 2026-05-09 02:33 | 45.20338 | -75.54405 | 7566 ft | 189 kts | 56° |
| 2026-05-09 02:33 | 45.20964 | -75.52760 | 7567 ft | 190 kts | 56° |
| 2026-05-09 02:34 | 45.21583 | -75.51134 | 7567 ft | 190 kts | 56° |
| 2026-05-09 02:34 | 45.22208 | -75.49486 | 7566 ft | 190 kts | 56° |
| 2026-05-09 02:34 | 45.22835 | -75.47840 | 7567 ft | 190 kts | 56° |
| 2026-05-09 02:34 | 45.23463 | -75.46185 | 7566 ft | 190 kts | 56° |
| 2026-05-09 02:35 | 45.24091 | -75.44533 | 7571 ft | 190 kts | 57° |
| 2026-05-09 02:35 | 45.24716 | -75.42883 | 7570 ft | 190 kts | 57° |
| 2026-05-09 02:35 | 45.25336 | -75.41251 | 7569 ft | 189 kts | 57° |
| 2026-05-09 02:35 | 45.25959 | -75.39605 | 7569 ft | 189 kts | 57° |
| 2026-05-09 02:36 | 45.26585 | -75.37955 | 7569 ft | 189 kts | 57° |
| 2026-05-09 02:36 | 45.27209 | -75.36304 | 7568 ft | 189 kts | 57° |
| 2026-05-09 02:36 | 45.27833 | -75.34655 | 7567 ft | 189 kts | 57° |
| 2026-05-09 02:36 | 45.28456 | -75.33006 | 7568 ft | 189 kts | 57° |
| 2026-05-09 02:37 | 45.29071 | -75.31378 | 7568 ft | 189 kts | 57° |
| 2026-05-09 02:37 | 45.29693 | -75.29729 | 7568 ft | 189 kts | 57° |
| 2026-05-09 02:37 | 45.30319 | -75.28071 | 7567 ft | 189 kts | 57° |
| 2026-05-09 02:37 | 45.30942 | -75.26418 | 7566 ft | 189 kts | 57° |
| 2026-05-09 02:38 | 45.31557 | -75.24787 | 7565 ft | 189 kts | 57° |
| 2026-05-09 02:38 | 45.32180 | -75.23134 | 7564 ft | 189 kts | 57° |
| 2026-05-09 02:38 | 45.32803 | -75.21480 | 7560 ft | 189 kts | 57° |
| 2026-05-09 02:38 | 45.33420 | -75.19841 | 7560 ft | 189 kts | 57° |
| 2026-05-09 02:39 | 45.34042 | -75.18183 | 7559 ft | 189 kts | 57° |
| 2026-05-09 02:39 | 45.34659 | -75.16544 | 7560 ft | 189 kts | 57° |
| 2026-05-09 02:39 | 45.35283 | -75.14882 | 7560 ft | 189 kts | 57° |
| 2026-05-09 02:39 | 45.35904 | -75.13228 | 7551 ft | 189 kts | 58° |
| 2026-05-09 02:40 | 45.36518 | -75.11590 | 7550 ft | 189 kts | 58° |
| 2026-05-09 02:40 | 45.37138 | -75.09936 | 7551 ft | 190 kts | 58° |
| 2026-05-09 02:40 | 45.37758 | -75.08279 | 7550 ft | 190 kts | 58° |
| 2026-05-09 02:40 | 45.38380 | -75.06619 | 7551 ft | 190 kts | 58° |
| 2026-05-09 02:41 | 45.38999 | -75.04963 | 7559 ft | 190 kts | 58° |
| 2026-05-09 02:41 | 45.39621 | -75.03304 | 7559 ft | 189 kts | 58° |
| 2026-05-09 02:41 | 45.40240 | -75.01645 | 7558 ft | 189 kts | 58° |
| 2026-05-09 02:41 | 45.40859 | -74.99988 | 7559 ft | 189 kts | 58° |
| 2026-05-09 02:42 | 45.41470 | -74.98351 | 7557 ft | 189 kts | 58° |
| 2026-05-09 02:42 | 45.42088 | -74.96696 | 7556 ft | 189 kts | 59° |
| 2026-05-09 02:42 | 45.42705 | -74.95041 | 7557 ft | 189 kts | 58° |
| 2026-05-09 02:42 | 45.43321 | -74.93385 | 7560 ft | 189 kts | 59° |
| 2026-05-09 02:43 | 45.43940 | -74.91725 | 7561 ft | 189 kts | 58° |
| 2026-05-09 02:43 | 45.44555 | -74.90070 | 7560 ft | 189 kts | 59° |
| 2026-05-09 02:43 | 45.45172 | -74.88412 | 7561 ft | 190 kts | 58° |
| 2026-05-09 02:43 | 45.45791 | -74.86748 | 7561 ft | 190 kts | 59° |
| 2026-05-09 02:44 | 45.46471 | -74.85153 | 7556 ft | 186 kts | 41° |
| 2026-05-09 02:44 | 45.47550 | -74.84257 | 7555 ft | 178 kts | 15° |
| 2026-05-09 02:44 | 45.48655 | -74.83482 | 7555 ft | 181 kts | 23° |
| 2026-05-09 02:44 | 45.49727 | -74.82537 | 7555 ft | 182 kts | 26° |
| 2026-05-09 02:45 | 45.50793 | -74.81562 | 7558 ft | 182 kts | 26° |
| 2026-05-09 02:45 | 45.51860 | -74.80582 | 7342 ft | 180 kts | 27° |
| 2026-05-09 02:45 | 45.52886 | -74.79629 | 7054 ft | 172 kts | 26° |
| 2026-05-09 02:45 | 45.53885 | -74.78729 | 6767 ft | 168 kts | 26° |
| 2026-05-09 02:46 | 45.54865 | -74.77845 | 6491 ft | 165 kts | 27° |
| 2026-05-09 02:46 | 45.55834 | -74.76971 | 6206 ft | 164 kts | 27° |
| 2026-05-09 02:46 | 45.56782 | -74.76113 | 5912 ft | 163 kts | 27° |
| 2026-05-09 02:46 | 45.57734 | -74.75249 | 5638 ft | 161 kts | 28° |
| 2026-05-09 02:47 | 45.58674 | -74.74395 | 5377 ft | 160 kts | 28° |
| 2026-05-09 02:47 | 45.59609 | -74.73547 | 5115 ft | 159 kts | 28° |
| 2026-05-09 02:47 | 45.60540 | -74.72700 | 4856 ft | 159 kts | 29° |
| 2026-05-09 02:47 | 45.61471 | -74.71854 | 4597 ft | 159 kts | 29° |
| 2026-05-09 02:48 | 45.62403 | -74.71005 | 4328 ft | 158 kts | 29° |
| 2026-05-09 02:48 | 45.63333 | -74.70159 | 4085 ft | 157 kts | 30° |
| 2026-05-09 02:48 | 45.64243 | -74.69331 | 3877 ft | 154 kts | 30° |
| 2026-05-09 02:48 | 45.65143 | -74.68512 | 3675 ft | 153 kts | 29° |
| 2026-05-09 02:49 | 45.66019 | -74.67655 | 3468 ft | 153 kts | 42° |
| 2026-05-09 02:49 | 45.66542 | -74.66352 | 3270 ft | 152 kts | 76° |
| 2026-05-09 02:49 | 45.66565 | -74.64873 | 3068 ft | 147 kts | 107° |
| 2026-05-09 02:49 | 45.66134 | -74.63622 | 2889 ft | 140 kts | 135° |
| 2026-05-09 02:50 | 45.65379 | -74.62801 | 2699 ft | 133 kts | 162° |
| 2026-05-09 02:50 | 45.64496 | -74.62516 | 2527 ft | 128 kts | 180° |
| 2026-05-09 02:50 | 45.63656 | -74.62066 | 2351 ft | 134 kts | 151° |
| 2026-05-09 02:50 | 45.63028 | -74.61087 | 2264 ft | 133 kts | 125° |
| 2026-05-09 02:51 | 45.62766 | -74.59849 | 2255 ft | 130 kts | 98° |
| 2026-05-09 02:51 | 45.62825 | -74.58561 | 2247 ft | 133 kts | 88° |
| 2026-05-09 02:51 | 45.62891 | -74.57229 | 2256 ft | 137 kts | 89° |
| 2026-05-09 02:51 | 45.62961 | -74.55857 | 2257 ft | 139 kts | 89° |
| 2026-05-09 02:52 | 45.63033 | -74.54468 | 2261 ft | 141 kts | 89° |
| 2026-05-09 02:52 | 45.63107 | -74.53071 | 2264 ft | 141 kts | 89° |
| 2026-05-09 02:52 | 45.63180 | -74.51696 | 2221 ft | 142 kts | 89° |
| 2026-05-09 02:52 | 45.63254 | -74.50250 | 2053 ft | 151 kts | 89° |
| 2026-05-09 02:53 | 45.63335 | -74.48719 | 1848 ft | 157 kts | 89° |
| 2026-05-09 02:53 | 45.63419 | -74.47143 | 1625 ft | 160 kts | 90° |
| 2026-05-09 02:53 | 45.63498 | -74.45601 | 1403 ft | 151 kts | 89° |
| 2026-05-09 02:53 | 45.63579 | -74.44140 | 1187 ft | 144 kts | 88° |
| 2026-05-09 02:54 | 45.63656 | -74.42750 | 990 ft | 136 kts | 88° |
| 2026-05-09 02:54 | 45.63737 | -74.41443 | 789 ft | 130 kts | 97° |
| 2026-05-09 02:54 | 45.63742 | -74.40216 | 636 ft | 118 kts | 105° |
| 2026-05-09 02:54 | 45.63820 | -74.39118 | 475 ft | 99 kts | 80° |
| 2026-05-09 02:55 | 45.63903 | -74.38218 | 344 ft | 85 kts | 85° |
| 2026-05-09 02:55 | 45.63947 | -74.37393 | 224 ft | 79 kts | 86° |
| 2026-05-09 02:55 | 45.63978 | -74.36713 | 213 ft | 57 kts | 88° |
| 2026-05-09 02:55 | 45.63983 | -74.36376 | 214 ft | 19 kts | 130° |
| 2026-05-09 02:56 | 45.63897 | -74.36303 | 215 ft | 9 kts | 151° |
| 2026-05-09 02:56 | 45.63883 | -74.36281 | 213 ft | 0 kts | 89° |
| 2026-05-09 02:56 | 45.63883 | -74.36280 | 213 ft | 0 kts | 74° |
| 2026-05-09 02:59 | 45.63882 | -74.36284 | 213 ft | 0 kts | 75° |
| 2026-05-09 02:59 | 45.63881 | -74.36287 | 213 ft | 0 kts | 18° |
| 2026-05-09 03:00 | 45.63879 | -74.36288 | 210 ft | 0 kts | 17° |